Time;durP1;ratioP1;P1;durP2;ratioP2;P2;SDS_P1;SDS_P2;PMS_P1;PMS_P2;Temp;Humidity;BMP_temperature;BMP_pressure;BME280_temperature;BME280_humidity;BME280_pressure;Samples;Min_cycle;Max_cycle;Signal;HPM_P1;HPM_P2
2024/01/08 00:01:02;;;;;;;;;;;;;;;;;;;;;
2024/01/08 00:03:34;;;;;;;40.30;19.63;;;;;;;-0.98;100.00;102201.03;4933905;29;20059;-96
2024/01/08 00:06:07;;;;;;;39.17;19.67;;;;;;;-0.99;100.00;102197.63;4918767;29;20035;-96
2024/01/08 00:08:41;;;;;;;;;;;;;;;-0.98;100.00;102191.53;4921739;29;20130;-96
2024/01/08 00:11:07;;;;;;;38.40;19.08;;;;;;;-1.00;100.00;102186.38;4935018;29;20021;-96
2024/01/08 00:13:35;;;;;;;36.92;17.38;;;;;;;-1.00;100.00;102188.09;4921626;29;20039;-96
2024/01/08 00:16:14;;;;;;;45.00;20.02;;;;;;;-1.04;100.00;102189.03;4919627;29;20028;-96
2024/01/08 00:18:40;;;;;;;46.47;21.05;;;;;;;-1.05;100.00;102187.34;4927373;29;20122;-96
2024/01/08 00:21:23;;;;;;;43.63;21.25;;;;;;;-1.08;100.00;102185.63;4921903;29;20093;-96
2024/01/08 00:23:52;;;;;;;38.72;19.80;;;;;;;-1.05;100.00;102190.78;4937071;29;20488;-96
2024/01/08 00:26:18;;;;;;;37.65;19.02;;;;;;;-1.12;100.00;102186.56;4921792;29;20087;-96
2024/01/08 00:28:45;;;;;;;34.75;18.80;;;;;;;-1.04;100.00;102181.25;4920542;29;20039;-96
2024/01/08 00:31:10;;;;;;;43.63;19.52;;;;;;;-0.97;100.00;102190.63;4936197;29;20031;-96
2024/01/08 00:33:39;;;;;;;40.90;18.77;;;;;;;-0.95;100.00;102194.06;4913041;29;20119;-96
2024/01/08 00:36:08;;;;;;;32.25;17.52;;;;;;;-0.92;100.00;102182.78;4918106;29;20027;-96
2024/01/08 00:38:34;;;;;;;35.85;17.58;;;;;;;-0.86;100.00;102185.25;4925653;29;20035;-96
2024/01/08 00:40:59;;;;;;;34.22;16.63;;;;;;;-0.79;100.00;102196.41;4917841;29;20029;-96
2024/01/08 00:43:25;;;;;;;36.17;18.00;;;;;;;-0.74;100.00;102189.41;4934167;29;20035;-96
2024/01/08 00:45:51;;;;;;;35.15;16.65;;;;;;;-0.69;100.00;102177.19;4914634;29;20034;-96
2024/01/08 00:48:19;;;;;;;34.40;17.17;;;;;;;-0.60;100.00;102189.13;4932688;29;20024;-96
2024/01/08 00:50:45;;;;;;;33.13;17.05;;;;;;;-0.63;100.00;102189.19;4916264;29;20144;-96
2024/01/08 00:53:11;;;;;;;36.15;18.88;;;;;;;-0.65;100.00;102194.41;4917833;29;20047;-96
2024/01/08 00:55:37;;;;;;;41.65;19.52;;;;;;;-0.71;100.00;102194.53;4934329;29;20403;-96
2024/01/08 00:58:03;;;;;;;38.13;19.92;;;;;;;-0.70;100.00;102185.84;4934391;29;20484;-96
2024/01/08 01:00:28;;;;;;;36.33;18.50;;;;;;;-0.64;100.00;102187.50;4935740;29;20031;-96
2024/01/08 01:02:54;;;;;;;29.35;17.17;;;;;;;-0.48;100.00;102197.59;4920585;29;20031;-96
2024/01/08 01:05:20;;;;;;;33.28;17.48;;;;;;;-0.43;100.00;102188.81;4910222;29;20026;-96
2024/01/08 01:07:46;;;;;;;32.35;16.98;;;;;;;-0.36;100.00;102194.75;4949790;28;20458;-96
2024/01/08 01:10:11;;;;;;;31.42;17.10;;;;;;;-0.29;100.00;102196.34;4921421;29;20035;-96
2024/01/08 01:12:37;;;;;;;40.50;18.45;;;;;;;-0.28;100.00;102190.28;4928070;29;20031;-95
2024/01/08 01:15:03;;;;;;;35.42;17.20;;;;;;;-0.16;100.00;102196.13;4913562;29;20043;-95
2024/01/08 01:17:29;;;;;;;26.67;15.20;;;;;;;-0.09;100.00;102189.03;4922727;29;20028;-95
2024/01/08 01:19:55;;;;;;;28.20;17.45;;;;;;;-0.08;100.00;102185.56;4940642;29;20098;-96
2024/01/08 01:22:21;;;;;;;32.15;17.10;;;;;;;-0.07;100.00;102192.47;4915964;29;20039;-96
2024/01/08 01:24:46;;;;;;;34.90;17.52;;;;;;;-0.10;100.00;102192.53;4953417;29;20086;-96
2024/01/08 01:27:12;;;;;;;30.77;15.70;;;;;;;-0.13;100.00;102190.88;4924946;29;20062;-96
2024/01/08 01:29:38;;;;;;;29.38;15.52;;;;;;;-0.14;100.00;102196.94;4924421;29;20090;-96
2024/01/08 01:32:04;;;;;;;29.95;16.40;;;;;;;-0.06;100.00;102194.16;4925078;29;20039;-96
2024/01/08 01:34:30;;;;;;;28.60;15.85;;;;;;;-0.06;100.00;102184.63;4923530;29;20054;-96
2024/01/08 01:36:56;;;;;;;31.23;15.20;;;;;;;-0.05;100.00;102181.16;4922338;29;20031;-95
2024/01/08 01:39:22;;;;;;;32.88;17.58;;;;;;;0.00;100.00;102178.47;4922695;29;20484;-95
2024/01/08 01:41:50;;;;;;;31.38;17.15;;;;;;;0.00;100.00;102178.47;4923648;29;20023;-95
2024/01/08 01:44:16;;;;;;;32.65;17.38;;;;;;;-0.07;100.00;102182.06;4938724;29;20035;-95
2024/01/08 01:46:46;;;;;;;32.38;16.75;;;;;;;-0.02;100.00;102183.69;4940791;29;20042;-96
2024/01/08 01:49:14;;;;;;;33.00;16.38;;;;;;;-0.02;100.00;102183.69;4923678;29;20037;-96
2024/01/08 01:51:42;;;;;;;34.67;18.00;;;;;;;0.00;100.00;102178.47;4927571;29;20053;-95
2024/01/08 01:54:09;;;;;;;29.60;16.60;;;;;;;0.04;100.00;102187.91;4916826;28;20042;-96
2024/01/08 01:56:36;;;;;;;34.08;17.95;;;;;;;0.09;100.00;102188.69;4946169;29;20078;-96
2024/01/08 01:59:04;;;;;;;37.13;16.35;;;;;;;0.10;100.00;102192.13;4923715;29;20099;-96
2024/01/08 02:01:30;;;;;;;27.80;15.70;;;;;;;0.05;100.00;102193.97;4940760;29;20464;-96
2024/01/08 02:03:56;;;;;;;29.00;16.20;;;;;;;0.00;100.00;102186.28;4921358;29;20040;-95
2024/01/08 02:06:25;;;;;;;29.73;16.10;;;;;;;0.02;100.00;102181.88;4937948;29;20066;-96
2024/01/08 02:08:54;;;;;;;29.80;15.88;;;;;;;0.00;100.00;102186.28;4939969;29;20102;-95
2024/01/08 02:11:20;;;;;;;27.65;16.15;;;;;;;0.01;100.00;102185.38;4940603;29;20034;-95
2024/01/08 02:13:46;;;;;;;28.55;16.73;;;;;;;-0.03;100.00;102189.78;4921871;29;20385;-96
2024/01/08 02:16:13;;;;;;;30.80;17.17;;;;;;;-0.03;100.00;102187.19;4921050;29;20469;-95
2024/01/08 02:18:39;;;;;;;28.98;17.52;;;;;;;-0.01;100.00;102187.13;4934322;29;20036;-95
2024/01/08 02:21:04;;;;;;;31.73;16.13;;;;;;;0.01;100.00;102185.38;4915523;29;20123;-96
2024/01/08 02:23:30;;;;;;;26.67;15.00;;;;;;;-0.02;100.00;102195.84;4932184;29;20027;-96
2024/01/08 02:25:56;;;;;;;32.65;16.92;;;;;;;0.01;100.00;102203.56;4934747;29;20071;-95
2024/01/08 02:28:22;;;;;;;26.02;15.73;;;;;;;0.03;100.00;102200.94;4928941;28;20046;-96
2024/01/08 02:30:48;;;;;;;26.10;15.27;;;;;;;0.06;100.00;102198.28;4935705;29;20031;-95
2024/01/08 02:33:14;;;;;;;28.30;15.40;;;;;;;0.14;100.00;102204.19;4919751;29;20149;-95
2024/01/08 02:35:41;;;;;;;27.35;15.05;;;;;;;0.16;100.00;102193.75;4920327;29;20198;-96
2024/01/08 02:38:07;;;;;;;25.52;13.95;;;;;;;0.20;100.00;102192.78;4938358;29;20782;-95
2024/01/08 02:40:32;;;;;;;32.30;15.27;;;;;;;0.24;100.00;102199.63;4932546;29;20110;-96
2024/01/08 02:42:58;;;;;;;27.40;15.55;;;;;;;0.22;100.00;102193.63;4923204;29;20038;-96
2024/01/08 02:45:24;;;;;;;26.73;14.95;;;;;;;0.26;100.00;102192.66;4920331;29;20114;-95
2024/01/08 02:47:50;;;;;;;24.92;14.35;;;;;;;0.31;100.00;102189.94;4938678;29;20031;-96
2024/01/08 02:50:16;;;;;;;29.25;14.52;;;;;;;0.32;100.00;102194.28;4940629;29;20039;-95
2024/01/08 02:52:44;;;;;;;22.38;13.77;;;;;;;0.28;100.00;102188.28;4950710;29;20032;-96
2024/01/08 02:55:10;;;;;;;26.60;15.80;;;;;;;0.31;100.00;102189.94;4925068;29;20048;-96
2024/01/08 02:57:36;;;;;;;29.00;14.95;;;;;;;0.29;100.00;102189.97;4922152;29;20043;-96
2024/01/08 03:00:04;;;;;;;28.13;14.95;;;;;;;0.28;100.00;102193.47;4922361;29;20054;-96
2024/01/08 03:02:31;;;;;;;22.50;13.65;;;;;;;0.25;100.00;102188.34;4919526;29;20121;-96
2024/01/08 03:04:57;;;;;;;24.80;13.65;;;;;;;0.24;100.00;102189.22;4930984;28;20043;-96
2024/01/08 03:07:23;;;;;;;23.95;13.05;;;;;;;0.23;100.00;102184.91;4938459;29;20038;-96
2024/01/08 03:09:49;;;;;;;25.42;13.63;;;;;;;0.19;100.00;102189.31;4916139;29;20083;-95
2024/01/08 03:12:15;;;;;;;19.75;12.68;;;;;;;0.19;100.00;102184.09;4920330;29;20039;-96
2024/01/08 03:14:42;;;;;;;23.73;12.50;;;;;;;0.19;100.00;102178.91;4919095;29;20024;-95
2024/01/08 03:17:08;;;;;;;22.95;12.98;;;;;;;0.17;100.00;102177.25;4931180;29;20605;-95
2024/01/08 03:19:34;;;;;;;24.90;13.43;;;;;;;0.10;100.00;102179.97;4935599;29;20046;-96
2024/01/08 03:22:04;;;;;;;21.73;12.68;;;;;;;0.07;100.00;102179.19;4934898;28;20030;-96
2024/01/08 03:24:30;;;;;;;24.77;13.93;;;;;;;0.01;100.00;102171.50;4944337;28;20468;-96
2024/01/08 03:26:56;;;;;;;24.20;14.45;;;;;;;-0.06;100.00;102182.03;4916332;29;20042;-96
2024/01/08 03:29:23;;;;;;;28.52;13.85;;;;;;;-0.10;100.00;102180.41;4914696;29;20445;-96
2024/01/08 03:31:49;;;;;;;28.45;14.90;;;;;;;-0.19;100.00;102178.84;4929240;29;20034;-96
2024/01/08 03:34:15;;;;;;;27.17;13.98;;;;;;;-0.23;100.00;102174.59;4930546;29;20039;-96
2024/01/08 03:36:47;;;;;;;24.58;13.60;;;;;;;-0.18;100.00;102180.56;4919160;29;20124;-96
2024/01/08 03:39:14;;;;;;;26.88;13.52;;;;;;;-0.19;100.00;102183.19;4915615;29;20035;-96
2024/01/08 03:41:40;;;;;;;25.60;12.85;;;;;;;-0.22;100.00;102186.69;4934262;29;20032;-96
2024/01/08 03:44:07;;;;;;;24.45;13.25;;;;;;;-0.25;100.00;102184.16;4918357;29;20035;-96
2024/01/08 03:46:34;;;;;;;21.33;13.20;;;;;;;-0.23;100.00;102184.13;4914058;29;20047;-96
2024/01/08 03:49:00;;;;;;;29.00;13.07;;;;;;;-0.26;100.00;102185.06;4935533;29;20145;-96
2024/01/08 03:51:26;;;;;;;26.83;13.43;;;;;;;-0.21;100.00;102183.22;4934751;29;20087;-96
2024/01/08 03:53:53;;;;;;;24.30;13.77;;;;;;;-0.23;100.00;102179.78;4916116;29;20027;-96
2024/01/08 03:56:19;;;;;;;25.17;12.60;;;;;;;-0.25;100.00;102181.56;4920478;29;20075;-95
2024/01/08 03:58:44;;;;;;;22.08;12.25;;;;;;;-0.20;100.00;102187.53;4920392;29;20039;-96
2024/01/08 04:01:11;;;;;;;24.95;12.48;;;;;;;-0.16;100.00;102185.72;4934069;29;20035;-96
2024/01/08 04:03:38;;;;;;;21.27;11.80;;;;;;;-0.14;100.00;102177.00;4931082;29;20039;-96
2024/01/08 04:06:03;;;;;;;32.38;15.95;;;;;;;-0.15;100.00;102177.03;4963511;28;20035;-95
2024/01/08 04:08:29;;;;;;;32.85;17.17;;;;;;;-0.14;100.00;102178.75;4928842;29;20472;-96
2024/01/08 04:10:55;;;;;;;34.30;16.52;;;;;;;-0.15;100.00;102167.50;4937429;29;20121;-96
2024/01/08 04:13:21;;;;;;;36.03;18.23;;;;;;;-0.15;100.00;102170.09;4918812;29;20035;-96
2024/01/08 04:15:46;;;;;;;46.58;19.60;;;;;;;-0.11;100.00;102170.03;4945972;29;20047;-96
2024/01/08 04:18:13;;;;;;;34.38;17.35;;;;;;;-0.06;100.00;102175.97;4932095;29;20482;-96
2024/01/08 04:20:39;;;;;;;38.58;15.82;;;;;;;-0.02;100.00;102175.88;4917256;29;20027;-96
2024/01/08 04:23:05;;;;;;;25.45;12.70;;;;;;;0.02;100.00;102187.06;4921178;29;20634;-96
2024/01/08 04:25:31;;;;;;;21.67;12.32;;;;;;;-0.03;100.00;102171.56;4936287;28;20114;-96
2024/01/08 04:27:57;;;;;;;21.42;10.80;;;;;;;-0.04;100.00;102179.41;4933277;29;20122;-96
2024/01/08 04:30:23;;;;;;;21.05;12.48;;;;;;;-0.07;100.00;102177.75;4916532;29;20428;-96
2024/01/08 04:32:48;;;;;;;25.20;14.40;;;;;;;-0.08;100.00;102181.22;4920357;29;20043;-96
2024/01/08 04:35:14;;;;;;;23.92;12.93;;;;;;;-0.06;100.00;102183.78;4919821;29;20476;-96
2024/01/08 04:37:40;;;;;;;32.28;16.58;;;;;;;-0.06;100.00;102176.84;4934541;29;20030;-96
2024/01/08 04:40:07;;;;;;;23.05;11.75;;;;;;;-0.06;100.00;102181.19;4933814;29;20074;-96
2024/01/08 04:42:33;;;;;;;18.35;10.20;;;;;;;-0.08;100.00;102169.97;4909315;29;20070;-96
2024/01/08 04:44:59;;;;;;;16.08;9.70;;;;;;;-0.10;100.00;102167.41;4925280;29;20062;-96
2024/01/08 04:47:25;;;;;;;22.67;10.40;;;;;;;-0.07;100.00;102167.34;4937672;29;20035;-96
2024/01/08 04:49:51;;;;;;;14.38;9.55;;;;;;;-0.06;100.00;102169.03;4921554;29;20369;-96
2024/01/08 04:52:17;;;;;;;16.25;9.77;;;;;;;-0.06;100.00;102165.56;4926363;29;20050;-96
2024/01/08 04:54:43;;;;;;;23.48;10.40;;;;;;;-0.05;100.00;102169.91;4939892;29;20439;-96
2024/01/08 04:57:09;;;;;;;21.08;11.63;;;;;;;-0.03;100.00;102170.72;4939075;29;20063;-96
2024/01/08 04:59:40;;;;;;;15.60;10.48;;;;;;;-0.01;100.00;102172.41;4923314;29;20465;-96
2024/01/08 05:02:05;;;;;;;20.98;11.68;;;;;;;-0.05;100.00;102164.72;4920633;29;20035;-95
2024/01/08 05:04:31;;;;;;;19.08;10.05;;;;;;;-0.07;100.00;102156.94;4939315;29;20038;-96
2024/01/08 05:06:57;;;;;;;21.60;9.95;;;;;;;-0.10;100.00;102163.94;4940254;29;20043;-96
2024/01/08 05:09:23;;;;;;;18.30;9.95;;;;;;;-0.26;100.00;102177.25;4924830;29;20035;-96
2024/01/08 05:11:48;;;;;;;22.67;12.40;;;;;;;-0.33;100.00;102170.44;4922570;29;20389;-96
2024/01/08 05:14:14;;;;;;;21.55;12.15;;;;;;;-0.37;100.00;102174.88;4941270;29;20031;-96
2024/01/08 05:16:40;;;;;;;25.10;13.82;;;;;;;-0.39;100.00;102176.63;4920914;29;20035;-96
2024/01/08 05:19:05;;;;;;;22.30;12.30;;;;;;;-0.44;100.00;102171.53;4931447;29;20042;-95
2024/01/08 05:21:31;;;;;;;23.80;13.63;;;;;;;-0.44;100.00;102175.84;4955707;29;20472;-95
2024/01/08 05:23:57;;;;;;;24.55;13.90;;;;;;;-0.48;100.00;102175.09;4904425;29;20055;-95
2024/01/08 05:26:23;;;;;;;24.40;14.48;;;;;;;-0.48;100.00;102179.41;4918581;29;20064;-96
2024/01/08 05:28:49;;;;;;;26.77;14.95;;;;;;;-0.48;100.00;102179.41;4948504;28;20539;-96
2024/01/08 05:31:14;;;;;;;24.25;14.23;;;;;;;-0.52;100.00;102181.19;4936726;29;20050;-96
2024/01/08 05:33:40;;;;;;;26.30;14.30;;;;;;;-0.60;100.00;102190.88;4927743;29;20035;-95
2024/01/08 05:36:06;;;;;;;24.50;14.25;;;;;;;-0.64;100.00;102198.72;4936647;29;20047;-94
2024/01/08 05:38:32;;;;;;;28.17;17.83;;;;;;;-0.60;100.00;102194.34;4916677;29;20046;-95
2024/01/08 05:40:58;;;;;;;35.75;19.73;;;;;;;-0.54;100.00;102183.00;4937742;29;20031;-94
2024/01/08 05:43:23;;;;;;;35.50;19.67;;;;;;;-0.44;100.00;102197.50;4937332;29;20130;-95
2024/01/08 05:45:49;;;;;;;36.47;19.25;;;;;;;-0.43;100.00;102198.38;4937106;29;20094;-95
2024/01/08 05:48:15;;;;;;;31.27;20.20;;;;;;;-0.45;100.00;102195.81;4922052;29;20090;-95
2024/01/08 05:50:41;;;;;;;31.35;18.90;;;;;;;-0.51;100.00;102204.56;4919096;29;20043;-96
2024/01/08 05:53:07;;;;;;;33.70;19.20;;;;;;;-0.57;100.00;102206.41;4939423;29;20035;-95
2024/01/08 05:55:33;;;;;;;38.78;22.33;;;;;;;-0.59;100.00;102193.44;4920577;29;20035;-95
2024/01/08 05:57:58;;;;;;;38.70;22.80;;;;;;;-0.56;100.00;102198.63;4940195;29;20027;-95
2024/01/08 06:00:24;;;;;;;40.58;22.58;;;;;;;-0.52;100.00;102202.00;4922670;29;20043;-95
2024/01/08 06:02:50;;;;;;;40.55;23.83;;;;;;;-0.45;100.00;102198.41;4966799;28;20027;-95
2024/01/08 06:05:16;;;;;;;34.85;21.73;;;;;;;-0.38;100.00;102202.59;4920788;29;20120;-95
2024/01/08 06:07:43;;;;;;;44.85;24.38;;;;;;;-0.34;100.00;102200.78;4939437;29;20036;-96
2024/01/08 06:10:09;;;;;;;41.20;23.10;;;;;;;-0.29;100.00;102203.31;4930185;29;20066;-95
2024/01/08 06:12:35;;;;;;;36.17;22.05;;;;;;;-0.28;100.00;102211.06;4936938;29;20023;-95
2024/01/08 06:15:00;;;;;;;43.17;24.25;;;;;;;-0.31;100.00;102200.75;4927231;29;20039;-95
2024/01/08 06:17:26;;;;;;;45.15;22.83;;;;;;;-0.27;100.00;102202.38;4920010;29;20412;-96
2024/01/08 06:19:52;;;;;;;37.50;22.42;;;;;;;-0.21;100.00;102203.16;4936268;29;20054;-95
2024/01/08 06:22:18;;;;;;;36.30;22.17;;;;;;;-0.19;100.00;102197.03;4914205;29;20035;-95
2024/01/08 06:24:43;;;;;;;39.08;21.35;;;;;;;-0.15;100.00;102190.03;4915713;29;21127;-96
2024/01/08 06:27:09;;;;;;;42.13;23.23;;;;;;;-0.13;100.00;102194.31;4926954;29;20043;-96
2024/01/08 06:29:35;;;;;;;44.90;22.10;;;;;;;-0.13;100.00;102196.06;4916039;29;20114;-96
2024/01/08 06:32:00;;;;;;;39.95;22.75;;;;;;;-0.14;100.00;102192.59;4923522;29;20713;-95
2024/01/08 06:34:26;;;;;;;37.85;23.02;;;;;;;-0.14;100.00;102189.13;4911027;29;20031;-95
2024/01/08 06:36:52;;;;;;;35.92;22.42;;;;;;;-0.16;100.00;102188.34;4929023;29;20122;-95
2024/01/08 06:39:18;;;;;;;35.67;20.67;;;;;;;-0.13;100.00;102199.50;4924898;29;20043;-95
2024/01/08 06:41:43;;;;;;;32.35;20.20;;;;;;;-0.09;100.00;102191.63;4925012;29;20384;-94
2024/01/08 06:44:09;;;;;;;38.28;19.92;;;;;;;-0.07;100.00;102189.88;4916269;29;20046;-95
2024/01/08 06:46:35;;;;;;;36.67;19.35;;;;;;;-0.06;100.00;102182.03;4935274;29;20584;-95
2024/01/08 06:49:01;;;;;;;32.90;18.38;;;;;;;-0.04;100.00;102200.22;4919800;29;20499;-96
2024/01/08 06:51:26;;;;;;;33.50;17.67;;;;;;;-0.01;100.00;102185.41;4938740;29;20035;-96
2024/01/08 06:53:52;;;;;;;27.23;17.65;;;;;;;0.06;100.00;102193.94;4938205;29;20384;-95
2024/01/08 06:56:18;;;;;;;29.98;19.75;;;;;;;0.08;100.00;102199.94;4930434;29;20038;-96
2024/01/08 06:58:44;;;;;;;36.03;19.27;;;;;;;0.07;100.00;102198.25;4935585;29;20044;-96
2024/01/08 07:01:09;;;;;;;31.58;17.27;;;;;;;0.11;100.00;102204.25;4936235;29;20039;-95
2024/01/08 07:03:35;;;;;;;31.85;18.52;;;;;;;0.11;100.00;102202.47;4936594;29;20027;-95
2024/01/08 07:06:01;;;;;;;29.23;17.38;;;;;;;0.13;100.00;102204.22;4928964;29;20023;-95
2024/01/08 07:08:27;;;;;;;31.98;18.25;;;;;;;0.14;100.00;102198.13;4921705;29;20125;-96
2024/01/08 07:10:53;;;;;;;23.55;15.85;;;;;;;0.13;100.00;102199.84;4920670;29;20117;-95
2024/01/08 07:13:19;;;;;;;30.80;16.15;;;;;;;0.15;100.00;102207.63;4932584;28;20043;-96
2024/01/08 07:15:46;;;;;;;26.42;15.30;;;;;;;0.17;100.00;102208.44;4937281;29;20027;-95
2024/01/08 07:18:13;;;;;;;24.02;15.45;;;;;;;0.20;100.00;102211.84;4937136;29;20074;-95
2024/01/08 07:20:40;;;;;;;22.58;15.60;;;;;;;0.21;100.00;102200.53;4936744;29;20063;-95
2024/01/08 07:23:09;;;;;;;24.05;15.95;;;;;;;0.24;100.00;102204.81;4933336;29;20070;-96
2024/01/08 07:25:35;;;;;;;21.95;15.30;;;;;;;0.23;100.00;102208.31;4936313;29;20089;-95
2024/01/08 07:28:02;;;;;;;28.25;15.93;;;;;;;0.23;100.00;102211.78;4939968;28;20358;-95
2024/01/08 07:30:27;;;;;;;22.50;14.32;;;;;;;0.23;100.00;102213.50;4932275;29;20441;-95
2024/01/08 07:32:53;;;;;;;26.27;15.05;;;;;;;0.25;100.00;102211.75;4919521;29;20074;-96
2024/01/08 07:35:22;;;;;;;25.52;15.23;;;;;;;0.26;100.00;102207.38;4918601;28;20046;-96
2024/01/08 07:37:54;;;;;;;21.38;13.30;;;;;;;0.29;100.00;102213.38;4948526;29;20043;-96
2024/01/08 07:40:27;;;;;;;25.23;14.07;;;;;;;0.29;100.00;102221.19;4937892;29;20059;-96
2024/01/08 07:42:54;;;;;;;23.60;14.27;;;;;;;0.22;100.00;102230.84;4906138;29;20038;-96
2024/01/08 07:45:22;;;;;;;21.50;14.20;;;;;;;0.20;100.00;102226.59;4933731;29;20031;-96
2024/01/08 07:47:48;;;;;;;29.15;15.93;;;;;;;0.06;100.00;102225.16;4933595;29;20047;-96
2024/01/08 07:50:14;;;;;;;24.48;14.18;;;;;;;0.04;100.00;102231.25;4921993;29;20039;-96
2024/01/08 07:52:41;;;;;;;25.30;15.18;;;;;;;0.01;100.00;102232.19;4919628;29;20031;-95
2024/01/08 07:55:08;;;;;;;21.75;13.82;;;;;;;-0.02;100.00;102237.44;4927973;29;20118;-95
2024/01/08 07:57:34;;;;;;;24.63;14.55;;;;;;;-0.07;100.00;102234.06;4936576;29;20074;-96
2024/01/08 08:00:01;;;;;;;23.15;14.35;;;;;;;-0.06;100.00;102238.38;4935057;28;20030;-96
2024/01/08 08:02:29;;;;;;;23.92;15.20;;;;;;;-0.05;100.00;102237.50;4925886;29;20464;-95
2024/01/08 08:04:55;;;;;;;26.13;15.25;;;;;;;-0.03;100.00;102241.78;4919351;29;20074;-96
2024/01/08 08:07:21;;;;;;;31.50;15.18;;;;;;;-0.01;100.00;102236.53;4934021;29;20497;-95
2024/01/08 08:09:47;;;;;;;24.90;14.77;;;;;;;0.05;100.00;102240.78;4934032;29;20030;-96
2024/01/08 08:12:13;;;;;;;27.85;14.38;;;;;;;0.07;100.00;102238.97;4917406;29;20125;-95
2024/01/08 08:14:39;;;;;;;26.20;15.27;;;;;;;0.14;100.00;102242.31;4935516;29;20034;-95
2024/01/08 08:17:04;;;;;;;22.42;14.05;;;;;;;0.17;100.00;102250.06;4918045;29;20485;-94
2024/01/08 08:19:30;;;;;;;25.88;14.85;;;;;;;0.15;100.00;102257.91;4954792;29;20031;-95
2024/01/08 08:21:56;;;;;;;24.40;13.30;;;;;;;0.18;100.00;102254.38;4935714;29;20031;-95
2024/01/08 08:24:23;;;;;;;26.92;14.02;;;;;;;0.19;100.00;102251.72;4936824;29;20035;-95
2024/01/08 08:26:49;;;;;;;23.40;15.15;;;;;;;0.20;100.00;102255.19;4938057;29;20490;-95
2024/01/08 08:29:16;;;;;;;26.83;15.00;;;;;;;0.21;100.00;102262.09;4924517;29;20391;-96
2024/01/08 08:31:42;;;;;;;20.70;13.50;;;;;;;0.26;100.00;102268.06;4921167;29;20035;-94
2024/01/08 08:34:09;;;;;;;25.08;14.50;;;;;;;0.30;100.00;102271.47;4938850;29;20027;-95
2024/01/08 08:36:39;;;;;;;27.15;14.38;;;;;;;0.36;100.00;102267.00;4925299;29;20043;-95
2024/01/08 08:39:05;;;;;;;19.98;13.65;;;;;;;0.34;100.00;102270.50;4921066;29;20062;-95
2024/01/08 08:41:31;;;;;;;21.83;14.23;;;;;;;0.37;100.00;102270.44;4920802;29;20030;-95
2024/01/08 08:43:57;;;;;;;21.75;12.98;;;;;;;0.40;100.00;102269.53;4923277;29;20090;-94
2024/01/08 08:46:23;;;;;;;20.95;13.32;;;;;;;0.42;100.00;102272.94;4932146;29;20035;-94
2024/01/08 08:48:48;;;;;;;20.45;12.88;;;;;;;0.44;100.00;102279.84;4918620;29;20046;-94
2024/01/08 08:51:15;;;;;;;19.63;13.43;;;;;;;0.45;100.00;102273.75;4920064;29;20039;-94
2024/01/08 08:53:40;;;;;;;20.23;13.70;;;;;;;0.47;100.00;102282.38;4922555;29;20099;-93
2024/01/08 08:56:06;;;;;;;21.65;13.80;;;;;;;0.47;100.00;102273.72;4947326;29;20035;-94
2024/01/08 08:58:32;;;;;;;22.45;13.50;;;;;;;0.48;100.00;102275.41;4939639;29;20380;-94
2024/01/08 09:00:58;;;;;;;22.35;14.00;;;;;;;0.51;100.00;102277.13;4941559;29;20039;-94
2024/01/08 09:03:24;;;;;;;18.40;11.85;;;;;;;0.42;100.00;102259.94;4920601;29;20035;-94
2024/01/08 09:05:52;;;;;;;20.73;13.18;;;;;;;0.46;100.00;102275.44;4941053;29;20091;-94
2024/01/08 09:08:18;;;;;;;22.48;11.95;;;;;;;0.46;100.00;102280.66;4941036;29;20051;-94
2024/01/08 09:10:43;;;;;;;19.13;12.48;;;;;;;0.42;100.00;102288.56;4925502;29;20118;-93
2024/01/08 09:13:10;;;;;;;19.95;11.95;;;;;;;0.45;100.00;102280.69;4939970;29;20191;-94
2024/01/08 09:15:36;;;;;;;18.40;11.85;;;;;;;0.42;100.00;102279.00;4921839;29;20028;-94
2024/01/08 09:18:02;;;;;;;21.25;12.23;;;;;;;0.46;100.00;102287.63;4918319;29;20043;-93
2024/01/08 09:20:28;;;;;;;22.80;12.23;;;;;;;0.46;100.00;102285.84;4936968;29;20039;-94
2024/01/08 09:22:53;;;;;;;16.50;10.95;;;;;;;0.56;100.00;102288.25;4919691;29;20480;-95
2024/01/08 09:25:19;;;;;;;18.95;11.65;;;;;;;0.63;100.00;102291.59;4956089;29;20126;-94
2024/01/08 09:27:45;;;;;;;22.70;11.70;;;;;;;0.68;100.00;102293.22;4933988;29;20365;-94
2024/01/08 09:30:11;;;;;;;17.42;11.35;;;;;;;0.74;100.00;102289.63;4916880;29;20043;-96
2024/01/08 09:32:37;;;;;;;16.83;10.90;;;;;;;0.77;100.00;102299.97;4921823;29;20027;-96
2024/01/08 09:35:03;;;;;;;18.33;11.25;;;;;;;0.76;100.00;102303.47;4936061;29;20066;-93
2024/01/08 09:37:29;;;;;;;15.95;10.75;;;;;;;0.69;100.00;102302.72;4943298;28;20502;-93
2024/01/08 09:39:56;;;;;;;16.25;9.30;;;;;;;0.64;100.00;102303.75;4926809;29;20039;-93
2024/01/08 09:42:26;;;;;;;14.23;9.18;;;;;;;0.66;100.00;102302.81;4937873;29;20179;-93
2024/01/08 09:44:54;;;;;;;13.93;8.27;;;;;;;0.66;100.00;102307.13;4939557;29;20086;-94
2024/01/08 09:47:20;;;;;;;13.00;7.65;;;;;;;0.67;100.00;102304.50;4928403;29;20543;-94
2024/01/08 09:49:46;;;;;;;12.40;7.60;;;;;;;0.69;100.00;102305.34;4953562;29;20027;-94
2024/01/08 09:52:17;;;;;;;13.57;7.15;;;;;;;0.80;100.00;102312.91;4922756;29;20047;-93
2024/01/08 09:54:43;;;;;;;12.27;8.43;;;;;;;0.76;100.00;102316.47;4911162;29;20039;-94
2024/01/08 09:57:09;;;;;;;13.73;7.60;;;;;;;0.82;100.00;102318.06;4923338;29;20046;-93
2024/01/08 09:59:35;;;;;;;11.65;6.75;;;;;;;0.85;100.00;102318.00;4924037;29;20045;-93
2024/01/08 10:02:01;;;;;;;12.90;7.70;;;;;;;0.89;100.00;102309.25;4936974;29;20035;-93
2024/01/08 10:04:27;;;;;;;13.63;7.75;;;;;;;0.92;100.00;102318.72;4921405;29;20524;-94
2024/01/08 10:07:06;;;;;;;10.45;7.97;;;;;;;1.04;100.00;102318.44;4920720;29;20530;-91
2024/01/08 10:09:32;;;;;;;14.95;8.52;;;;;;;1.05;100.00;102320.16;4929149;29;20499;-94
2024/01/08 10:11:58;;;;;;;13.07;8.10;;;;;;;1.18;100.00;102320.72;4937806;29;20037;-92
2024/01/08 10:14:25;;;;;;;14.07;7.60;;;;;;;1.31;100.00;102326.50;4939397;29;20035;-94
2024/01/08 10:16:55;;;;;;;11.75;7.03;;;;;;;1.46;100.00;102329.63;4933768;29;20028;-93
2024/01/08 10:19:23;;;;;;;14.18;6.55;;;;;;;1.53;100.00;102330.34;4953968;29;20019;-93
2024/01/08 10:22:07;;;;;;;12.05;6.60;;;;;;;1.67;100.00;102337.81;4936249;29;20031;-93
2024/01/08 10:24:33;;;;;;;13.98;7.43;;;;;;;1.69;100.00;102331.66;4937582;29;20033;-94
2024/01/08 10:26:59;;;;;;;13.68;7.72;;;;;;;1.71;100.00;102331.63;4935854;29;20453;-93
2024/01/08 10:29:24;;;;;;;11.82;7.63;;;;;;;1.71;100.00;102326.41;4954914;29;20114;-94
2024/01/08 10:31:50;;;;;;;14.38;7.00;;;;;;;1.78;100.00;102335.78;4921719;29;20027;-93
2024/01/08 10:34:16;;;;;;;7.68;5.63;;;;;;;1.83;100.00;102333.91;4932459;29;20036;-93
2024/01/08 10:36:45;;;;;;;11.55;5.18;;;;;;;1.93;100.00;102342.34;4916857;29;20043;-94
2024/01/08 10:39:12;;;;;;;10.18;4.90;;;;;;;1.91;100.00;102351.94;4948568;28;20042;-94
2024/01/08 10:41:38;;;;;;;12.32;4.38;;;;;;;1.92;100.00;102343.25;4936042;29;20037;-94
2024/01/08 10:44:04;;;;;;;9.55;3.20;;;;;;;1.96;100.00;102349.22;4938018;29;20094;-93
2024/01/08 10:46:38;;;;;;;7.47;3.17;;;;;;;2.01;100.00;102352.56;4932925;29;20098;-94
2024/01/08 10:49:14;;;;;;;7.85;3.13;;;;;;;2.03;100.00;102344.69;4918258;29;20401;-93
2024/01/08 10:51:44;;;;;;;9.32;3.15;;;;;;;2.06;100.00;102355.91;4938087;29;20154;-94
2024/01/08 10:54:13;;;;;;;7.18;3.28;;;;;;;2.11;100.00;102347.97;4936846;29;20062;-93
2024/01/08 10:56:38;;;;;;;6.75;2.83;;;;;;;2.17;100.00;102346.94;4928859;29;20063;-93
2024/01/08 10:59:05;;;;;;;3.40;2.33;;;;;;;2.22;100.00;102338.09;4931810;29;20122;-93
2024/01/08 11:01:36;;;;;;;10.85;2.90;;;;;;;2.33;100.00;102353.44;4922099;29;20028;-94
2024/01/08 11:04:03;;;;;;;3.10;2.60;;;;;;;2.29;100.00;102344.00;4937627;29;20027;-93
2024/01/08 11:06:32;;;;;;;6.20;2.30;;;;;;;2.30;100.00;102350.94;4941604;29;20059;-93